Time;durP1;ratioP1;P1;durP2;ratioP2;P2;SDS_P1;SDS_P2;PMS_P1;PMS_P2;Temp;Humidity;BMP_temperature;BMP_pressure;BME280_temperature;BME280_humidity;BME280_pressure;Samples;Min_cycle;Max_cycle;Signal;HPM_P1;HPM_P2
2023/10/01 00:00:27;;;;;;;14.30;4.82;;;14.80;99.90;;;;;;5055725;28;20385;-45
2023/10/01 00:02:59;;;;;;;12.85;4.38;;;14.70;99.90;;;;;;5054101;28;20045;-46
2023/10/01 00:05:25;;;;;;;14.48;4.75;;;14.70;99.90;;;;;;5055778;28;20040;-46
2023/10/01 00:07:52;;;;;;;12.65;4.72;;;14.70;99.90;;;;;;5055703;28;20384;-45
2023/10/01 00:10:19;;;;;;;13.85;4.50;;;14.70;99.90;;;;;;5054136;28;20090;-47
2023/10/01 00:12:47;;;;;;;13.10;5.47;;;14.70;99.90;;;;;;5054077;28;20049;-45
2023/10/01 00:15:17;;;;;;;14.50;5.20;;;14.70;99.90;;;;;;5055529;28;20049;-45
2023/10/01 00:17:44;;;;;;;15.45;5.45;;;14.70;99.90;;;;;;5055344;28;20072;-49
2023/10/01 00:20:20;;;;;;;15.23;5.47;;;14.70;99.90;;;;;;5055439;28;20370;-46
2023/10/01 00:22:57;;;;;;;13.23;5.28;;;14.70;99.90;;;;;;5055030;28;20049;-45
2023/10/01 00:25:23;;;;;;;16.55;5.68;;;14.70;99.90;;;;;;5055167;28;20424;-46
2023/10/01 00:27:50;;;;;;;13.93;5.32;;;14.70;99.90;;;;;;5054907;28;20045;-47
2023/10/01 00:30:17;;;;;;;13.48;5.32;;;14.70;99.90;;;;;;5055315;28;20439;-49
2023/10/01 00:32:42;;;;;;;14.00;5.50;;;14.70;99.90;;;;;;5055020;28;20443;-48
2023/10/01 00:35:12;;;;;;;14.18;5.47;;;14.70;99.90;;;;;;5054709;28;20120;-49
2023/10/01 00:37:38;;;;;;;11.65;5.57;;;14.70;99.90;;;;;;5055051;28;20056;-46
2023/10/01 00:40:05;;;;;;;12.63;5.90;;;14.70;99.90;;;;;;5055010;28;20076;-46
2023/10/01 00:42:35;;;;;;;11.65;4.90;;;14.70;99.90;;;;;;5054936;28;20049;-45
2023/10/01 00:45:07;;;;;;;15.25;5.47;;;14.70;99.90;;;;;;5054598;28;20083;-46
2023/10/01 00:47:35;;;;;;;10.98;5.05;;;14.70;99.90;;;;;;5054554;28;20048;-45
2023/10/01 00:50:01;;;;;;;14.07;4.95;;;14.70;99.90;;;;;;5054568;28;20159;-45
2023/10/01 00:52:28;;;;;;;12.57;5.20;;;14.70;99.90;;;;;;5054427;28;20504;-45
2023/10/01 00:54:55;;;;;;;13.70;5.65;;;14.70;99.90;;;;;;5054672;28;20114;-46
2023/10/01 00:57:21;;;;;;;15.10;5.72;;;14.70;99.90;;;;;;5054512;28;20498;-45
2023/10/01 00:59:48;;;;;;;14.43;5.22;;;14.70;99.90;;;;;;5053260;28;20159;-45
2023/10/01 01:02:17;;;;;;;11.35;5.10;;;14.70;99.90;;;;;;5054279;28;20076;-45
2023/10/01 01:04:47;;;;;;;17.25;5.75;;;14.80;99.90;;;;;;5053355;28;20067;-45
2023/10/01 01:07:19;;;;;;;12.40;5.28;;;14.70;99.90;;;;;;5053291;28;20045;-45
2023/10/01 01:09:46;;;;;;;15.82;5.28;;;14.70;99.90;;;;;;5054453;28;20071;-45
2023/10/01 01:12:15;;;;;;;12.45;5.40;;;14.70;99.90;;;;;;5054295;28;20041;-45
2023/10/01 01:14:44;;;;;;;12.38;4.93;;;14.70;99.90;;;;;;5054138;28;20441;-45
2023/10/01 01:17:13;;;;;;;12.20;5.15;;;14.70;99.90;;;;;;5054032;28;20047;-45
2023/10/01 01:19:41;;;;;;;9.40;4.63;;;14.70;99.90;;;;;;5054118;28;20052;-45
2023/10/01 01:22:09;;;;;;;16.52;5.65;;;14.70;99.90;;;;;;5054201;28;20063;-46
2023/10/01 01:24:36;;;;;;;12.85;4.88;;;14.70;99.90;;;;;;5054136;28;20099;-47
2023/10/01 01:27:05;;;;;;;13.00;5.60;;;14.70;99.90;;;;;;5053872;28;20056;-47
2023/10/01 01:29:44;;;;;;;16.52;5.40;;;14.70;99.90;;;;;;5053769;28;20044;-49
2023/10/01 01:32:16;;;;;;;11.80;5.25;;;14.70;99.90;;;;;;5053868;28;20460;-45
2023/10/01 01:34:44;;;;;;;13.88;6.03;;;14.60;99.90;;;;;;5054014;28;20051;-45
2023/10/01 01:37:30;;;;;;;16.55;5.72;;;14.60;99.90;;;;;;5052426;28;20045;-46
2023/10/01 01:39:57;;;;;;;14.82;5.82;;;14.60;99.90;;;;;;5054017;28;20738;-45
2023/10/01 01:42:24;;;;;;;13.82;5.65;;;14.70;99.90;;;;;;5053474;28;20432;-45
2023/10/01 01:45:38;;;;;;;19.13;6.00;;;14.70;99.90;;;;;;5052395;28;20052;-45
2023/10/01 01:47:38;;;;;;;16.15;6.43;;;14.70;99.90;;;;;;5045085;28;20527;-46
2023/10/01 01:53:04;;;;;;;13.27;6.38;;;14.70;99.90;;;;;;5041136;28;20049;-46
2023/10/01 01:55:34;;;;;;;16.13;6.68;;;14.70;99.90;;;;;;5053617;28;20045;-46
2023/10/01 01:58:08;;;;;;;15.50;6.57;;;14.70;99.90;;;;;;5053274;28;20469;-46
2023/10/01 02:00:37;;;;;;;17.48;7.55;;;14.60;99.90;;;;;;5052032;28;20090;-46
2023/10/01 02:03:10;;;;;;;15.95;6.82;;;14.70;99.90;;;;;;5051929;28;20136;-48
2023/10/01 02:05:41;;;;;;;15.05;6.97;;;14.70;99.90;;;;;;5053393;28;20428;-45
2023/10/01 02:08:23;;;;;;;16.90;7.03;;;14.70;99.90;;;;;;5053131;28;20044;-45
2023/10/01 02:10:54;;;;;;;17.30;6.55;;;14.70;99.90;;;;;;5053094;28;20040;-45
2023/10/01 02:13:21;;;;;;;16.42;7.45;;;14.70;99.90;;;;;;5053325;28;20041;-50
2023/10/01 02:15:47;;;;;;;14.20;7.05;;;14.60;99.90;;;;;;5066106;28;20401;-47
2023/10/01 02:18:19;;;;;;;17.05;7.05;;;14.70;99.90;;;;;;5072909;28;20047;-46
2023/10/01 02:20:56;;;;;;;16.75;7.07;;;14.70;99.90;;;;;;5072717;28;20519;-45
2023/10/01 02:23:26;;;;;;;16.20;7.60;;;14.70;99.90;;;;;;5071415;28;20044;-49
2023/10/01 02:25:53;;;;;;;15.05;7.15;;;14.70;99.90;;;;;;5072574;28;20558;-46
2023/10/01 02:28:19;;;;;;;18.42;7.57;;;14.60;99.90;;;;;;5072898;28;20040;-46
2023/10/01 02:30:45;;;;;;;15.73;7.50;;;14.60;99.90;;;;;;5072662;28;20054;-45
2023/10/01 02:33:17;;;;;;;17.33;8.23;;;14.60;99.90;;;;;;5072627;28;20072;-45
2023/10/01 02:35:49;;;;;;;18.23;8.32;;;14.60;99.90;;;;;;5072584;28;20112;-46
2023/10/01 02:41:02;;;;;;;20.73;8.15;;;14.60;99.90;;;;;;5072277;28;20128;-46
2023/10/01 02:43:34;;;;;;;17.40;8.88;;;14.60;99.90;;;;;;5072519;28;20044;-45
2023/10/01 02:46:26;;;;;;;15.98;8.43;;;14.60;99.90;;;;;;5072392;28;20473;-46
2023/10/01 02:49:03;;;;;;;17.58;8.10;;;14.60;99.90;;;;;;5072533;28;20040;-45
2023/10/01 02:51:37;;;;;;;15.45;8.88;;;14.60;99.90;;;;;;5072208;28;20127;-45
2023/10/01 02:54:06;;;;;;;15.98;8.52;;;14.60;99.90;;;;;;5072524;28;20047;-46
2023/10/01 02:56:34;;;;;;;18.02;9.05;;;14.60;99.90;;;;;;5072359;28;20161;-45
2023/10/01 02:59:08;;;;;;;17.88;8.88;;;14.60;99.90;;;;;;5072109;28;20120;-46
2023/10/01 03:01:34;;;;;;;17.33;9.38;;;14.60;99.90;;;;;;5071048;28;20044;-46
2023/10/01 03:04:05;;;;;;;17.27;9.05;;;14.60;99.90;;;;;;5070822;28;20048;-46
2023/10/01 03:06:33;;;;;;;21.35;9.63;;;14.60;99.90;;;;;;5070977;28;20369;-49
2023/10/01 03:11:25;;;;;;;20.23;9.52;;;14.50;99.90;;;;;;5071903;28;20098;-45
2023/10/01 03:13:54;;;;;;;17.50;8.88;;;14.50;99.90;;;;;;5071959;28;20099;-44
2023/10/01 03:16:42;;;;;;;19.63;9.52;;;14.60;99.90;;;;;;5072116;28;20045;-45
2023/10/01 03:19:24;;;;;;;13.95;8.70;;;14.60;99.90;;;;;;5072118;28;20052;-45
2023/10/01 03:24:42;;;;;;;16.55;8.77;;;14.60;99.90;;;;;;5071983;28;20045;-48
2023/10/01 03:27:25;;;;;;;19.10;9.48;;;14.60;99.90;;;;;;5071170;28;20155;-45
2023/10/01 03:30:00;;;;;;;17.88;9.95;;;14.60;99.90;;;;;;5071747;28;20485;-45
2023/10/01 03:32:29;;;;;;;20.25;9.75;;;14.60;99.90;;;;;;5070953;28;20373;-45
2023/10/01 03:34:55;;;;;;;17.33;9.60;;;14.60;99.90;;;;;;5071950;28;20123;-49
2023/10/01 03:37:27;;;;;;;20.48;9.65;;;14.50;99.90;;;;;;5070865;28;20062;-46
2023/10/01 03:40:04;;;;;;;16.83;8.65;;;14.50;99.90;;;;;;5071820;28;20661;-45
2023/10/01 03:42:33;;;;;;;16.85;8.85;;;14.60;99.90;;;;;;5071823;28;20400;-48
2023/10/01 03:47:27;;;;;;;20.38;9.63;;;14.60;99.90;;;;;;5072014;28;20059;-47
2023/10/01 03:49:54;;;;;;;17.45;8.75;;;14.60;99.90;;;;;;5053921;28;20388;-46
2023/10/01 03:52:21;;;;;;;20.23;9.60;;;14.60;99.90;;;;;;5070438;28;20052;-45
2023/10/01 03:55:00;;;;;;;19.10;9.30;;;14.60;99.90;;;;;;5071869;28;20097;-47
2023/10/01 03:57:29;;;;;;;19.15;8.48;;;14.60;99.90;;;;;;5071827;28;20040;-47
2023/10/01 03:59:57;;;;;;;18.40;10.60;;;14.70;99.90;;;;;;5072152;28;20119;-46
2023/10/01 04:02:28;;;;;;;17.75;8.80;;;14.70;99.90;;;;;;5071505;28;20080;-45
2023/10/01 04:05:03;;;;;;;17.60;8.60;;;14.70;99.90;;;;;;5071787;28;20032;-47
2023/10/01 04:07:43;;;;;;;15.43;8.25;;;14.70;99.90;;;;;;5071605;28;20044;-45
2023/10/01 04:10:13;;;;;;;18.10;8.73;;;14.70;99.90;;;;;;5071539;28;20044;-46
2023/10/01 04:12:49;;;;;;;16.52;8.18;;;14.70;99.60;;;;;;5071286;28;20090;-48
2023/10/01 04:15:54;;;;;;;16.98;8.25;;;14.80;99.40;;;;;;5070147;28;20152;-47
2023/10/01 04:23:29;;;;;;;19.42;9.15;;;14.80;99.00;;;;;;5071615;28;20124;-47
2023/10/01 04:25:56;;;;;;;15.75;8.10;;;14.70;99.30;;;;;;5071114;28;20056;-47
2023/10/01 04:28:23;;;;;;;19.15;8.93;;;14.70;99.80;;;;;;5071425;28;20053;-47
2023/10/01 04:30:52;;;;;;;20.05;9.57;;;14.70;99.90;;;;;;5071332;28;20405;-48
2023/10/01 04:33:22;;;;;;;17.63;9.27;;;14.70;99.90;;;;;;5071248;28;20054;-47
2023/10/01 04:35:55;;;;;;;16.20;8.82;;;14.70;99.90;;;;;;5071542;28;20044;-46
2023/10/01 04:38:28;;;;;;;18.17;8.93;;;14.70;99.90;;;;;;5071258;28;20571;-47
2023/10/01 04:40:55;;;;;;;20.40;9.73;;;14.70;99.90;;;;;;5074960;28;20047;-48
2023/10/01 04:43:21;;;;;;;17.70;9.52;;;14.70;99.90;;;;;;5074796;28;20461;-50
2023/10/01 04:45:52;;;;;;;15.82;8.63;;;14.70;99.90;;;;;;5074700;28;20075;-48
2023/10/01 04:48:25;;;;;;;19.43;9.37;;;14.70;99.90;;;;;;5074647;28;20055;-46
2023/10/01 04:50:54;;;;;;;16.05;9.05;;;14.70;99.90;;;;;;5074768;28;20087;-47
2023/10/01 04:53:23;;;;;;;18.35;9.27;;;14.70;99.90;;;;;;5073269;28;20090;-49
2023/10/01 04:56:05;;;;;;;20.58;9.30;;;14.70;99.90;;;;;;5074505;28;20044;-47
2023/10/01 04:58:36;;;;;;;21.02;9.77;;;14.70;99.90;;;;;;5074715;28;20428;-48
2023/10/01 05:01:06;;;;;;;18.13;8.20;;;14.60;99.90;;;;;;5074315;28;20086;-47
2023/10/01 05:03:44;;;;;;;19.02;10.10;;;14.70;99.90;;;;;;5074413;28;20477;-46
2023/10/01 05:06:14;;;;;;;17.08;8.45;;;14.70;99.90;;;;;;5074185;28;20038;-46
2023/10/01 05:08:40;;;;;;;18.73;8.95;;;14.70;99.90;;;;;;5074156;28;20731;-46
2023/10/01 05:11:11;;;;;;;15.35;9.20;;;14.70;99.90;;;;;;5074374;28;20041;-46
2023/10/01 05:13:41;;;;;;;17.33;9.27;;;14.70;99.90;;;;;;5073039;28;20080;-49
2023/10/01 05:16:18;;;;;;;16.35;9.00;;;14.70;99.90;;;;;;5074185;28;20051;-45
2023/10/01 05:18:48;;;;;;;17.98;8.85;;;14.70;99.90;;;;;;5073886;28;20036;-45
2023/10/01 05:21:14;;;;;;;16.60;8.45;;;14.70;99.90;;;;;;5074048;28;20045;-48
2023/10/01 05:23:43;;;;;;;18.02;8.68;;;14.70;99.90;;;;;;5073989;28;20079;-45
2023/10/01 05:26:10;;;;;;;17.10;9.27;;;14.60;99.90;;;;;;5055743;28;20048;-47
2023/10/01 05:28:36;;;;;;;19.20;8.80;;;14.60;99.90;;;;;;5073701;28;20481;-45
2023/10/01 05:31:12;;;;;;;14.45;8.27;;;14.60;99.90;;;;;;5073957;28;20041;-45
2023/10/01 05:33:38;;;;;;;17.90;8.68;;;14.60;99.90;;;;;;5073967;28;20040;-45
2023/10/01 05:36:05;;;;;;;17.55;7.60;;;14.60;99.90;;;;;;5073579;28;20119;-46
2023/10/01 05:38:34;;;;;;;18.52;8.45;;;14.60;99.90;;;;;;5074006;28;20476;-46
2023/10/01 05:41:13;;;;;;;16.90;8.75;;;14.60;99.90;;;;;;5073742;28;20047;-45
2023/10/01 05:43:43;;;;;;;19.08;9.38;;;14.60;99.90;;;;;;5073651;28;20055;-45
2023/10/01 05:46:12;;;;;;;17.35;9.25;;;14.50;99.90;;;;;;5073913;28;20044;-44
2023/10/01 05:48:39;;;;;;;18.55;8.90;;;14.60;99.90;;;;;;5073270;28;20492;-45
2023/10/01 05:51:15;;;;;;;15.50;8.02;;;14.60;99.90;;;;;;5072918;28;20039;-47
2023/10/01 05:53:43;;;;;;;17.80;8.65;;;14.60;99.90;;;;;;5073630;28;20040;-46
2023/10/01 05:56:11;;;;;;;24.67;9.38;;;14.60;99.90;;;;;;5073558;28;20051;-47
2023/10/01 05:58:38;;;;;;;18.40;8.57;;;14.60;99.90;;;;;;5072167;28;20048;-45
2023/10/01 06:01:13;;;;;;;18.35;8.43;;;14.60;99.90;;;;;;5073335;28;20033;-46
2023/10/01 06:03:40;;;;;;;17.52;9.18;;;14.50;99.90;;;;;;5073151;28;20048;-45
2023/10/01 06:06:24;;;;;;;17.08;8.63;;;14.60;99.90;;;;;;5073311;28;20041;-46
2023/10/01 06:08:58;;;;;;;16.77;8.90;;;14.60;99.90;;;;;;5071757;28;20051;-45
2023/10/01 06:17:00;;;;;;;17.52;9.07;;;14.50;99.90;;;;;;5073055;28;20396;-48
2023/10/01 06:19:33;;;;;;;16.17;8.50;;;14.60;99.90;;;;;;5072779;28;20504;-45
2023/10/01 06:22:22;;;;;;;15.57;8.55;;;14.50;99.90;;;;;;5072877;28;20127;-46
2023/10/01 06:24:47;;;;;;;18.63;8.93;;;14.60;99.90;;;;;;5054812;28;20048;-48
2023/10/01 06:27:18;;;;;;;15.85;8.43;;;14.60;99.90;;;;;;5071359;28;20207;-45
2023/10/01 06:29:49;;;;;;;15.77;8.57;;;14.60;99.90;;;;;;5072250;28;20369;-47
2023/10/01 06:32:19;;;;;;;16.60;8.35;;;14.60;99.90;;;;;;5071903;28;20051;-46
2023/10/01 06:34:47;;;;;;;17.77;8.40;;;14.70;99.90;;;;;;5071890;28;20047;-47
2023/10/01 06:37:12;;;;;;;15.55;7.85;;;14.70;99.90;;;;;;5071820;28;20044;-50
2023/10/01 06:39:40;;;;;;;17.02;7.95;;;14.70;99.90;;;;;;5071596;28;20067;-45
2023/10/01 06:42:19;;;;;;;16.95;7.63;;;14.70;99.90;;;;;;5071781;28;20055;-46
2023/10/01 06:44:53;;;;;;;13.40;8.25;;;14.80;99.90;;;;;;5070033;28;20487;-47
2023/10/01 06:47:22;;;;;;;16.13;8.07;;;14.80;99.90;;;;;;5070253;28;20053;-49
2023/10/01 06:52:34;;;;;;;18.00;8.40;;;14.80;99.90;;;;;;5070684;28;20433;-46
2023/10/01 06:55:04;;;;;;;18.95;7.93;;;14.90;99.90;;;;;;5061006;28;20032;-46
2023/10/01 06:57:33;;;;;;;13.13;7.35;;;14.90;99.90;;;;;;5059071;28;20126;-46
2023/10/01 07:00:00;;;;;;;17.90;8.32;;;14.90;99.90;;;;;;5060321;28;20041;-49
2023/10/01 07:02:29;;;;;;;14.75;7.07;;;15.00;99.90;;;;;;5059994;28;20041;-46
2023/10/01 07:04:58;;;;;;;20.02;8.38;;;15.00;99.90;;;;;;5061850;28;20115;-45
2023/10/01 07:07:28;;;;;;;16.38;8.45;;;15.10;99.90;;;;;;5068118;28;20041;-45
2023/10/01 07:10:00;;;;;;;18.67;8.32;;;15.10;99.90;;;;;;5071105;28;20037;-45
2023/10/01 07:12:26;;;;;;;19.02;7.95;;;15.20;99.90;;;;;;5062686;28;20071;-47
2023/10/01 07:14:53;;;;;;;18.35;8.00;;;15.20;99.90;;;;;;5070533;28;20052;-47
2023/10/01 07:17:25;;;;;;;16.23;8.27;;;15.30;99.90;;;;;;5071088;28;20091;-47
2023/10/01 07:20:00;;;;;;;17.95;8.70;;;15.30;99.90;;;;;;5070009;28;20507;-47
2023/10/01 07:22:26;;;;;;;19.55;8.35;;;15.30;99.90;;;;;;5070772;28;20083;-46
2023/10/01 07:24:53;;;;;;;18.10;7.93;;;15.30;99.90;;;;;;5070630;28;20071;-45
2023/10/01 07:27:18;;;;;;;13.57;7.15;;;15.30;99.90;;;;;;5070839;28;20044;-47
2023/10/01 07:29:44;;;;;;;16.02;8.75;;;15.30;99.90;;;;;;5070904;28;20574;-46
2023/10/01 07:32:14;;;;;;;18.08;8.95;;;15.30;99.90;;;;;;5071163;28;20044;-46
2023/10/01 07:34:48;;;;;;;17.40;7.72;;;15.40;99.90;;;;;;5071237;28;20068;-45
2023/10/01 07:37:29;;;;;;;18.88;8.23;;;15.30;99.90;;;;;;5071078;28;20125;-47
2023/10/01 07:39:59;;;;;;;18.80;8.13;;;15.30;99.90;;;;;;5071247;28;20465;-49
2023/10/01 07:42:28;;;;;;;14.52;7.15;;;15.40;99.90;;;;;;5070927;28;20045;-48
2023/10/01 07:44:56;;;;;;;15.02;7.53;;;15.30;99.90;;;;;;5070477;28;20041;-47
2023/10/01 07:47:28;;;;;;;16.23;6.97;;;15.30;99.90;;;;;;5070631;28;20097;-44
2023/10/01 07:49:56;;;;;;;18.95;8.52;;;15.40;99.90;;;;;;5070128;28;20036;-46
2023/10/01 07:52:23;;;;;;;19.75;8.15;;;15.40;99.90;;;;;;5070335;28;20048;-46
2023/10/01 07:54:49;;;;;;;15.00;7.40;;;15.40;99.90;;;;;;5068497;28;20052;-44
2023/10/01 07:57:27;;;;;;;20.52;8.15;;;15.40;99.90;;;;;;5070591;28;20040;-45
2023/10/01 07:59:59;;;;;;;20.60;8.13;;;15.40;99.90;;;;;;5070607;28;20040;-45
2023/10/01 08:02:28;;;;;;;16.92;7.35;;;15.40;99.90;;;;;;5070944;28;20044;-46
2023/10/01 08:04:57;;;;;;;16.48;7.45;;;15.40;99.90;;;;;;5071017;28;20051;-47
2023/10/01 08:07:30;;;;;;;19.05;7.70;;;15.40;99.90;;;;;;5070905;28;20052;-46
2023/10/01 08:09:59;;;;;;;14.15;7.30;;;15.40;99.90;;;;;;5070659;28;20048;-45
2023/10/01 08:12:56;;;;;;;14.85;7.32;;;15.40;99.90;;;;;;5070778;28;20156;-49
2023/10/01 08:15:29;;;;;;;15.65;6.60;;;15.50;99.90;;;;;;5074357;28;20044;-48
2023/10/01 08:17:56;;;;;;;16.20;7.03;;;15.60;99.90;;;;;;5074525;28;20040;-46
2023/10/01 08:20:22;;;;;;;16.42;7.82;;;15.60;99.90;;;;;;5074348;28;20504;-49
2023/10/01 08:25:33;;;;;;;15.38;7.45;;;15.70;99.90;;;;;;5074211;28;20044;-47
2023/10/01 08:30:39;;;;;;;15.85;7.35;;;15.70;99.90;;;;;;5072949;28;20052;-48
2023/10/01 08:33:32;;;;;;;17.58;7.40;;;15.70;99.90;;;;;;5074102;28;20566;-47
2023/10/01 08:36:12;;;;;;;14.27;6.97;;;15.80;99.90;;;;;;5073984;28;20484;-50
2023/10/01 08:38:47;;;;;;;18.73;7.05;;;15.80;99.90;;;;;;5074039;28;20043;-47
2023/10/01 08:41:32;;;;;;;17.15;7.20;;;15.90;99.90;;;;;;5072558;28;20564;-47
2023/10/01 08:44:09;;;;;;;14.98;6.45;;;16.00;99.90;;;;;;5072806;28;20420;-45
2023/10/01 08:46:39;;;;;;;17.90;7.25;;;16.10;99.90;;;;;;5073985;28;20087;-46
2023/10/01 08:49:30;;;;;;;17.27;7.32;;;16.00;99.90;;;;;;5074214;28;20447;-45
2023/10/01 08:52:18;;;;;;;16.27;6.90;;;16.00;99.90;;;;;;5073821;28;20059;-47
2023/10/01 08:54:45;;;;;;;16.88;7.05;;;16.10;99.90;;;;;;5073804;28;20040;-45
2023/10/01 08:57:18;;;;;;;17.73;7.05;;;16.10;99.90;;;;;;5073655;28;20481;-47
2023/10/01 08:59:45;;;;;;;19.25;7.40;;;16.20;99.90;;;;;;5073524;28;20098;-48
2023/10/01 09:02:19;;;;;;;17.33;7.18;;;16.20;99.90;;;;;;5055955;28;20056;-48
2023/10/01 09:04:47;;;;;;;20.92;7.20;;;16.20;99.90;;;;;;5073538;28;20036;-47
2023/10/01 09:07:18;;;;;;;16.13;6.72;;;16.30;99.90;;;;;;5073660;28;20056;-48
2023/10/01 09:10:05;;;;;;;17.88;7.88;;;16.40;99.90;;;;;;5073426;28;20089;-45
2023/10/01 09:12:45;;;;;;;17.08;8.18;;;16.50;99.90;;;;;;5073095;28;20143;-48
2023/10/01 09:15:38;;;;;;;14.43;6.75;;;16.70;99.90;;;;;;5073268;28;20044;-46
2023/10/01 09:18:20;;;;;;;21.08;8.02;;;16.90;99.90;;;;;;5072161;28;20047;-46
2023/10/01 09:23:55;;;;;;;18.85;8.10;;;17.20;99.90;;;;;;5073023;28;20585;-46
2023/10/01 09:26:53;;;;;;;20.40;7.70;;;17.40;99.70;;;;;;5071827;28;20052;-45
2023/10/01 09:29:32;;;;;;;17.85;7.28;;;17.50;97.60;;;;;;5072813;28;20131;-46
2023/10/01 09:31:58;;;;;;;16.55;7.53;;;17.60;97.60;;;;;;5073203;28;20401;-48
2023/10/01 09:34:33;;;;;;;18.83;6.85;;;17.60;98.10;;;;;;5072891;28;20051;-49
2023/10/01 09:37:35;;;;;;;18.67;7.68;;;17.80;99.90;;;;;;5072959;28;20125;-49
2023/10/01 09:40:45;;;;;;;19.50;7.70;;;17.80;98.00;;;;;;5073046;28;20059;-49
2023/10/01 09:42:57;;;;;;;18.55;7.43;;;17.90;99.90;;;;;;5069409;28;20382;-46
2023/10/01 09:45:29;;;;;;;21.05;7.38;;;18.00;99.90;;;;;;5072806;28;20048;-47
2023/10/01 09:48:04;;;;;;;20.90;7.75;;;18.00;99.90;;;;;;5072933;28;20043;-48
2023/10/01 09:50:39;;;;;;;21.38;7.68;;;18.10;99.20;;;;;;5072399;28;20043;-45
2023/10/01 09:53:12;;;;;;;22.88;8.40;;;18.10;99.00;;;;;;5072076;28;20048;-49
2023/10/01 09:55:47;;;;;;;19.98;7.00;;;18.20;98.30;;;;;;5070899;28;20056;-46
2023/10/01 09:58:28;;;;;;;21.92;8.02;;;18.20;99.30;;;;;;5071402;28;20044;-47
2023/10/01 10:01:01;;;;;;;21.42;7.65;;;18.30;97.10;;;;;;5072859;28;20508;-49
2023/10/01 10:03:36;;;;;;;20.98;7.07;;;18.40;99.90;;;;;;5073119;28;20111;-47
2023/10/01 10:06:09;;;;;;;23.35;8.77;;;18.40;94.80;;;;;;5072968;28;20083;-48
2023/10/01 10:08:37;;;;;;;20.85;7.80;;;18.60;96.20;;;;;;5072616;28;20037;-46
2023/10/01 10:11:08;;;;;;;19.90;7.60;;;18.70;92.30;;;;;;5071385;28;20509;-46
2023/10/01 10:13:45;;;;;;;17.42;7.85;;;18.80;89.20;;;;;;5073181;28;20040;-45
2023/10/01 10:16:33;;;;;;;16.52;6.68;;;18.90;73.10;;;;;;5072807;28;20036;-44
2023/10/01 10:19:12;;;;;;;17.80;7.32;;;19.10;77.80;;;;;;5072820;28;20106;-46
2023/10/01 10:22:05;;;;;;;19.23;7.50;;;19.20;65.50;;;;;;5072928;28;20366;-45
2023/10/01 10:24:40;;;;;;;19.70;7.47;;;19.50;58.60;;;;;;5073039;28;20033;-45
2023/10/01 10:27:08;;;;;;;19.55;7.22;;;19.60;61.70;;;;;;5072633;28;20162;-47
2023/10/01 10:29:46;;;;;;;17.75;7.35;;;19.60;51.40;;;;;;5054891;28;20048;-45
2023/10/01 10:32:15;;;;;;;17.67;7.60;;;19.50;49.10;;;;;;5072641;28;20106;-45
2023/10/01 10:35:03;;;;;;;21.60;7.70;;;19.50;56.60;;;;;;5071530;28;20077;-46
2023/10/01 10:37:38;;;;;;;18.00;7.50;;;19.40;44.20;;;;;;5072720;28;20050;-45
2023/10/01 10:42:58;;;;;;;17.30;7.57;;;19.50;54.70;;;;;;5072623;28;20123;-47
2023/10/01 10:45:46;;;;;;;19.00;7.22;;;19.40;46.60;;;;;;5072430;28;20102;-49
2023/10/01 10:48:21;;;;;;;20.73;7.60;;;19.30;49.60;;;;;;5072283;28;20101;-48
2023/10/01 10:50:57;;;;;;;15.63;6.90;;;19.20;44.90;;;;;;5072232;28;20477;-47
2023/10/01 10:53:25;;;;;;;23.40;9.15;;;19.30;51.30;;;;;;5070929;28;20059;-46
2023/10/01 10:56:06;;;;;;;19.63;8.25;;;19.20;47.00;;;;;;5072152;28;20531;-47
2023/10/01 10:59:01;;;;;;;17.00;6.68;;;19.20;41.10;;;;;;5072065;28;20507;-49
2023/10/01 11:01:43;;;;;;;19.30;8.15;;;19.30;43.80;;;;;;5072180;28;20056;-48
2023/10/01 11:04:09;;;;;;;17.98;6.80;;;19.30;42.30;;;;;;5072046;28;20056;-45
2023/10/01 11:07:01;;;;;;;16.23;7.70;;;19.20;42.50;;;;;;5072198;28;20115;-46
2023/10/01 11:09:27;;;;;;;20.00;7.57;;;19.10;42.50;;;;;;5072299;28;20044;-47
2023/10/01 11:12:01;;;;;;;16.17;6.95;;;19.20;50.50;;;;;;5072394;28;20449;-46
2023/10/01 11:14:27;;;;;;;21.85;7.28;;;19.20;53.50;;;;;;5072391;28;20392;-46
2023/10/01 11:16:53;;;;;;;22.58;7.70;;;19.20;50.00;;;;;;5072277;28;20111;-47
2023/10/01 11:19:25;;;;;;;18.23;7.60;;;19.20;46.50;;;;;;5072125;28;20515;-46
2023/10/01 11:22:00;;;;;;;19.90;8.07;;;19.20;42.50;;;;;;5072017;28;20432;-48
2023/10/01 11:24:31;;;;;;;19.05;6.68;;;19.30;40.70;;;;;;5072169;28;20385;-48
2023/10/01 11:27:25;;;;;;;20.00;8.77;;;19.40;35.00;;;;;;5070701;28;20501;-47
2023/10/01 11:30:12;;;;;;;17.77;7.22;;;19.50;39.00;;;;;;5067452;28;20119;-45
2023/10/01 11:33:03;;;;;;;19.58;7.20;;;19.50;34.00;;;;;;5071795;28;20094;-46
2023/10/01 11:35:59;;;;;;;18.83;7.22;;;19.60;28.00;;;;;;5071895;28;20036;-47
2023/10/01 11:38:26;;;;;;;15.55;7.00;;;19.70;31.60;;;;;;5071886;28;20392;-46
2023/10/01 11:41:07;;;;;;;14.00;6.88;;;19.70;31.70;;;;;;5072094;28;20174;-49
2023/10/01 11:44:02;;;;;;;17.23;7.05;;;19.70;23.50;;;;;;5072196;28;20101;-45
2023/10/01 11:49:34;;;;;;;18.13;7.25;;;19.80;21.60;;;;;;5075033;28;20457;-47
2023/10/01 11:52:25;;;;;;;16.95;6.85;;;19.80;25.10;;;;;;5075916;28;20040;-45
2023/10/01 11:54:53;;;;;;;20.70;7.22;;;19.80;20.00;;;;;;5074640;28;20052;-46
2023/10/01 11:57:24;;;;;;;17.02;6.90;;;19.80;25.50;;;;;;5074596;28;20049;-46
2023/10/01 11:59:58;;;;;;;18.35;8.00;;;19.70;22.50;;;;;;5075436;28;20047;-45
2023/10/01 12:02:43;;;;;;;17.27;7.60;;;19.70;14.60;;;;;;5075545;28;20090;-45
2023/10/01 12:05:13;;;;;;;18.33;6.85;;;19.60;14.40;;;;;;5074146;28;20048;-45
2023/10/01 12:07:39;;;;;;;21.23;8.80;;;19.70;14.50;;;;;;5075251;28;20485;-49
2023/10/01 12:10:07;;;;;;;17.98;7.30;;;19.70;13.30;;;;;;5074984;28;20044;-46
2023/10/01 12:12:39;;;;;;;19.48;7.20;;;19.80;11.70;;;;;;5074121;28;20185;-45
2023/10/01 12:17:54;;;;;;;20.15;7.63;;;19.90;14.10;;;;;;5075499;28;20049;-50
2023/10/01 12:20:23;;;;;;;17.50;7.53;;;19.90;11.10;;;;;;5074807;28;20119;-47
2023/10/01 12:23:10;;;;;;;18.65;8.00;;;19.90;9.50;;;;;;5075189;28;20394;-49
2023/10/01 12:28:28;;;;;;;19.42;8.68;;;19.80;8.70;;;;;;5075047;28;20107;-46
2023/10/01 12:30:58;;;;;;;21.73;8.07;;;19.90;9.60;;;;;;5074740;28;20074;-45
2023/10/01 12:33:40;;;;;;;17.95;7.50;;;19.90;4.00;;;;;;5075180;28;20051;-45
2023/10/01 12:36:11;;;;;;;;;;;20.00;4.10;;;;;;5075337;28;20178;-47
2023/10/01 12:38:38;;;;;;;20.73;8.38;;;20.00;1.00;;;;;;5075188;28;20288;-46
2023/10/01 12:41:05;;;;;;;20.85;7.78;;;20.10;1.00;;;;;;5073807;28;20433;-46
2023/10/01 12:43:37;;;;;;;18.50;8.02;;;20.20;4.70;;;;;;5074741;28;20083;-46
2023/10/01 12:46:10;;;;;;;22.42;7.97;;;20.20;4.40;;;;;;5074937;28;20482;-46
2023/10/01 12:48:38;;;;;;;19.50;7.80;;;20.30;1.00;;;;;;5074863;28;20067;-46
2023/10/01 12:51:07;;;;;;;19.00;7.57;;;20.20;1.00;;;;;;5074908;28;20041;-47
2023/10/01 12:53:49;;;;;;;21.70;8.60;;;20.20;1.00;;;;;;5074426;28;20439;-46
2023/10/01 12:56:38;;;;;;;20.85;8.02;;;20.30;2.40;;;;;;5074495;28;20486;-46
2023/10/01 12:59:06;;;;;;;21.42;8.73;;;20.30;2.50;;;;;;5073646;28;20068;-48
2023/10/01 13:01:32;;;;;;;19.67;8.15;;;20.30;1.00;;;;;;5073935;28;20099;-46
2023/10/01 13:07:06;;;;;;;20.05;7.75;;;20.30;1.00;;;;;;5035456;28;20081;-47
2023/10/01 13:09:53;;;;;;;18.00;8.15;;;20.40;1.00;;;;;;5051824;28;20045;-46
2023/10/01 13:12:24;;;;;;;20.55;8.20;;;20.50;1.00;;;;;;5057629;28;20056;-48
2023/10/01 13:17:43;;;;;;;20.05;8.05;;;20.60;1.00;;;;;;5074086;28;20481;-47
2023/10/01 13:20:19;;;;;;;18.73;8.73;;;20.60;1.00;;;;;;5074009;28;20124;-46
2023/10/01 13:22:51;;;;;;;20.70;8.18;;;20.50;1.00;;;;;;5073111;28;20036;-45
2023/10/01 13:25:23;;;;;;;19.33;7.30;;;20.50;1.00;;;;;;5074055;28;20507;-47
2023/10/01 13:28:04;;;;;;;21.15;8.10;;;20.50;1.00;;;;;;5073675;28;20055;-47
2023/10/01 13:33:53;;;;;;;;;;;20.60;1.00;;;;;;5074593;28;20102;-46
2023/10/01 13:36:12;;;;;;;20.17;7.75;;;20.60;1.00;;;;;;5073466;28;19972;-47
2023/10/01 13:38:56;;;;;;;20.52;8.77;;;20.60;1.00;;;;;;5073381;28;20151;-47
2023/10/01 14:08:44;;;;;;;22.17;8.30;;;20.40;1.00;;;;;;5073303;28;20054;-47
2023/10/01 14:11:11;;;;;;;;;;;20.40;1.00;;;;;;5073036;28;20033;-47
2023/10/01 14:13:41;;;;;;;19.67;8.27;;;20.40;1.00;;;;;;5072890;28;19967;-46
2023/10/01 14:16:17;;;;;;;18.23;7.65;;;20.40;1.00;;;;;;5072931;28;20098;-47
2023/10/01 14:21:32;;;;;;;20.23;7.78;;;20.40;1.00;;;;;;5071683;28;20055;-46
2023/10/01 14:26:46;;;;;;;19.67;7.35;;;20.40;1.00;;;;;;5072560;28;20091;-47
2023/10/01 14:29:22;;;;;;;20.17;8.43;;;20.40;1.00;;;;;;5072794;28;20044;-46
2023/10/01 14:31:49;;;;;;;20.65;8.82;;;20.40;1.00;;;;;;5072658;28;20054;-47
2023/10/01 14:34:23;;;;;;;20.55;8.65;;;20.40;1.00;;;;;;5072568;28;20044;-47